createdAt,value
2019-01-30T00:13:09.015Z,86.53
2019-01-30T00:41:41.543Z,86.8
2019-01-30T01:10:20.094Z,86.97
2019-01-30T01:38:55.297Z,86.95
2019-01-30T02:07:25.641Z,87.09
2019-01-30T02:36:00.730Z,87.08
2019-01-30T05:01:50.204Z,86.76
2019-01-30T05:30:11.847Z,86.63
2019-01-30T05:58:46.553Z,86.53
2019-01-30T06:27:24.403Z,86.67
2019-01-30T06:56:03.530Z,86.77
2019-01-30T07:24:44.543Z,86.77
2019-01-30T07:53:19.583Z,86.43
2019-01-30T08:21:59.471Z,86.45
2019-01-30T08:50:36.278Z,85.92
2019-01-30T09:19:17.818Z,85.55
2019-01-30T09:47:56.715Z,79.18
2019-01-30T10:16:40.514Z,76.18
2019-01-30T10:45:23.521Z,74.95
2019-01-30T11:14:01.446Z,71.89
2019-01-30T11:42:38.381Z,71.49
2019-01-30T12:11:15.495Z,70.43
2019-01-30T12:39:55.322Z,71.52
2019-01-30T13:08:36.632Z,69.32
2019-01-30T13:37:13.900Z,66.46
2019-01-30T14:05:48.073Z,67.31
2019-01-30T14:34:25.506Z,67.63
2019-01-30T15:03:03.728Z,70.55
2019-01-30T15:31:39.912Z,69.48
2019-01-30T16:00:19.645Z,69.69
2019-01-30T16:28:58.521Z,69.99
2019-01-30T16:57:33.828Z,70.36
2019-01-30T17:26:08.521Z,70.9
2019-01-30T17:54:46.524Z,71.39
2019-01-30T18:23:23.708Z,71.24
2019-01-30T18:51:59.670Z,73.49
2019-01-30T19:20:30.396Z,74.31
2019-01-30T19:49:11.632Z,73.73
2019-01-30T20:17:46.726Z,73.21
2019-01-30T20:46:23.870Z,72.53
2019-01-30T21:15:02.328Z,73.44
2019-01-30T21:43:39.302Z,73.46
2019-01-30T22:12:10.848Z,73.44
2019-01-30T22:40:49.959Z,74.88
2019-01-30T23:09:21.400Z,72.12
2019-01-30T23:37:59.804Z,70.52
